sensor_id;sensor_type;location;lat;lon;timestamp;pressure;altitude;pressure_sealevel;temperature;humidity
10464;BME280;5279;42.048;24.638;2023-01-19T00:00:53;96550.72;;;12.90;77.91
10464;BME280;5279;42.048;24.638;2023-01-19T00:03:20;96562.00;;;12.92;77.92
10464;BME280;5279;42.048;24.638;2023-01-19T00:05:48;96590.97;;;12.87;78.91
10464;BME280;5279;42.048;24.638;2023-01-19T00:08:17;96591.44;;;12.76;80.34
10464;BME280;5279;42.048;24.638;2023-01-19T00:10:46;96576.94;;;12.64;82.19
10464;BME280;5279;42.048;24.638;2023-01-19T00:13:15;96574.09;;;12.66;81.78
10464;BME280;5279;42.048;24.638;2023-01-19T00:15:42;96572.28;;;12.66;81.86
10464;BME280;5279;42.048;24.638;2023-01-19T00:18:09;96558.97;;;12.66;81.67
10464;BME280;5279;42.048;24.638;2023-01-19T00:20:36;96569.88;;;12.56;80.61
10464;BME280;5279;42.048;24.638;2023-01-19T00:23:04;96591.13;;;12.56;80.85
10464;BME280;5279;42.048;24.638;2023-01-19T00:25:34;96593.63;;;12.58;80.67
10464;BME280;5279;42.048;24.638;2023-01-19T00:28:07;96580.50;;;12.56;79.92
10464;BME280;5279;42.048;24.638;2023-01-19T00:30:34;96585.56;;;12.66;80.68
10464;BME280;5279;42.048;24.638;2023-01-19T00:33:02;96585.72;;;12.65;80.72
10464;BME280;5279;42.048;24.638;2023-01-19T00:35:29;96571.81;;;12.63;81.49
10464;BME280;5279;42.048;24.638;2023-01-19T00:37:57;96590.59;;;12.61;81.19
10464;BME280;5279;42.048;24.638;2023-01-19T00:40:24;96592.06;;;12.49;82.14
10464;BME280;5279;42.048;24.638;2023-01-19T00:42:53;96585.72;;;12.50;82.45
10464;BME280;5279;42.048;24.638;2023-01-19T00:45:20;96579.13;;;12.46;81.25
10464;BME280;5279;42.048;24.638;2023-01-19T00:47:49;96587.00;;;12.54;80.41
10464;BME280;5279;42.048;24.638;2023-01-19T00:50:22;96594.78;;;12.55;80.44
10464;BME280;5279;42.048;24.638;2023-01-19T00:52:51;96595.16;;;12.52;80.22
10464;BME280;5279;42.048;24.638;2023-01-19T00:55:18;96604.78;;;12.53;79.66
10464;BME280;5279;42.048;24.638;2023-01-19T00:57:45;96582.44;;;12.48;79.30
10464;BME280;5279;42.048;24.638;2023-01-19T01:02:44;96585.81;;;12.56;78.75
10464;BME280;5279;42.048;24.638;2023-01-19T01:05:12;96592.31;;;12.54;79.30
10464;BME280;5279;42.048;24.638;2023-01-19T01:07:40;96600.75;;;12.43;78.55
10464;BME280;5279;42.048;24.638;2023-01-19T01:10:11;96594.88;;;12.47;78.42
10464;BME280;5279;42.048;24.638;2023-01-19T01:12:38;96592.06;;;12.49;78.79
10464;BME280;5279;42.048;24.638;2023-01-19T01:15:08;96596.81;;;12.53;78.24
10464;BME280;5279;42.048;24.638;2023-01-19T01:17:37;96594.91;;;12.62;78.63
10464;BME280;5279;42.048;24.638;2023-01-19T01:20:15;96608.47;;;12.67;78.83
10464;BME280;5279;42.048;24.638;2023-01-19T01:22:45;96608.91;;;12.71;78.69
10464;BME280;5279;42.048;24.638;2023-01-19T01:25:13;96590.78;;;12.74;78.93
10464;BME280;5279;42.048;24.638;2023-01-19T01:27:40;96560.34;;;12.62;79.85
10464;BME280;5279;42.048;24.638;2023-01-19T01:30:10;96572.91;;;12.68;79.39
10464;BME280;5279;42.048;24.638;2023-01-19T01:32:40;96572.28;;;12.66;78.79
10464;BME280;5279;42.048;24.638;2023-01-19T01:35:08;96569.25;;;12.69;77.51
10464;BME280;5279;42.048;24.638;2023-01-19T01:37:35;96557.53;;;12.78;76.16
10464;BME280;5279;42.048;24.638;2023-01-19T01:40:04;96574.09;;;12.80;74.70
10464;BME280;5279;42.048;24.638;2023-01-19T01:42:32;96578.78;;;12.78;76.19
10464;BME280;5279;42.048;24.638;2023-01-19T01:45:02;96584.47;;;12.75;76.46
10464;BME280;5279;42.048;24.638;2023-01-19T01:47:35;96567.53;;;12.76;77.14
10464;BME280;5279;42.048;24.638;2023-01-19T01:50:10;96595.47;;;12.72;77.15
10464;BME280;5279;42.048;24.638;2023-01-19T01:52:42;96591.13;;;12.71;76.49
10464;BME280;5279;42.048;24.638;2023-01-19T01:55:12;96591.97;;;12.57;76.63
10464;BME280;5279;42.048;24.638;2023-01-19T01:57:52;96611.19;;;12.59;76.96
10464;BME280;5279;42.048;24.638;2023-01-19T02:00:22;96593.06;;;12.48;77.63
10464;BME280;5279;42.048;24.638;2023-01-19T02:02:49;96613.59;;;12.54;78.03
10464;BME280;5279;42.048;24.638;2023-01-19T02:05:21;96623.00;;;12.42;80.75
10464;BME280;5279;42.048;24.638;2023-01-19T02:07:54;96630.38;;;12.32;81.29
10464;BME280;5279;42.048;24.638;2023-01-19T02:10:40;96617.53;;;12.21;85.63
10464;BME280;5279;42.048;24.638;2023-01-19T02:13:25;96637.25;;;12.26;84.72
10464;BME280;5279;42.048;24.638;2023-01-19T02:15:55;96638.19;;;12.11;88.05
10464;BME280;5279;42.048;24.638;2023-01-19T02:18:26;96624.63;;;12.05;91.90
10464;BME280;5279;42.048;24.638;2023-01-19T02:21:00;96613.41;;;11.95;93.67
10464;BME280;5279;42.048;24.638;2023-01-19T02:23:39;96604.53;;;11.88;93.88
10464;BME280;5279;42.048;24.638;2023-01-19T02:26:09;96611.19;;;11.84;93.97
10464;BME280;5279;42.048;24.638;2023-01-19T02:28:41;96614.47;;;11.86;90.34
10464;BME280;5279;42.048;24.638;2023-01-19T02:31:09;96617.19;;;11.78;91.59
10464;BME280;5279;42.048;24.638;2023-01-19T02:33:36;96618.16;;;11.85;91.59
10464;BME280;5279;42.048;24.638;2023-01-19T02:36:05;96618.00;;;12.01;89.13
10464;BME280;5279;42.048;24.638;2023-01-19T02:38:35;96622.97;;;12.04;88.55
10464;BME280;5279;42.048;24.638;2023-01-19T02:41:05;96596.41;;;12.04;88.56
10464;BME280;5279;42.048;24.638;2023-01-19T02:43:33;96589.47;;;12.03;85.31
10464;BME280;5279;42.048;24.638;2023-01-19T02:46:03;96594.78;;;12.03;84.64
10464;BME280;5279;42.048;24.638;2023-01-19T02:48:30;96610.81;;;12.10;85.53
10464;BME280;5279;42.048;24.638;2023-01-19T02:50:59;96633.47;;;11.98;85.28
10464;BME280;5279;42.048;24.638;2023-01-19T02:53:51;96616.72;;;11.97;86.73
10464;BME280;5279;42.048;24.638;2023-01-19T02:56:35;96608.81;;;11.89;87.40
10464;BME280;5279;42.048;24.638;2023-01-19T02:59:12;96607.81;;;11.90;83.89
10464;BME280;5279;42.048;24.638;2023-01-19T03:01:50;96626.53;;;11.97;83.48
10464;BME280;5279;42.048;24.638;2023-01-19T03:04:29;96626.69;;;11.95;82.85
10464;BME280;5279;42.048;24.638;2023-01-19T03:07:03;96633.72;;;11.88;84.08
10464;BME280;5279;42.048;24.638;2023-01-19T03:09:40;96625.44;;;11.83;84.92
10464;BME280;5279;42.048;24.638;2023-01-19T03:12:16;96635.00;;;11.92;82.34
10464;BME280;5279;42.048;24.638;2023-01-19T03:14:48;96641.34;;;11.91;81.01
10464;BME280;5279;42.048;24.638;2023-01-19T03:17:17;96647.63;;;11.90;82.56
10464;BME280;5279;42.048;24.638;2023-01-19T03:19:47;96643.44;;;11.73;83.16
10464;BME280;5279;42.048;24.638;2023-01-19T03:22:19;96643.03;;;11.84;79.26
10464;BME280;5279;42.048;24.638;2023-01-19T03:24:47;96648.00;;;11.87;77.31
10464;BME280;5279;42.048;24.638;2023-01-19T03:27:19;96638.69;;;11.91;78.29
10464;BME280;5279;42.048;24.638;2023-01-19T03:29:54;96637.00;;;11.90;80.03
10464;BME280;5279;42.048;24.638;2023-01-19T03:32:28;96643.72;;;11.78;81.00
10464;BME280;5279;42.048;24.638;2023-01-19T03:35:00;96648.69;;;11.81;79.76
10464;BME280;5279;42.048;24.638;2023-01-19T03:37:30;96642.78;;;11.71;81.55
10464;BME280;5279;42.048;24.638;2023-01-19T03:39:59;96654.88;;;11.66;81.72
10464;BME280;5279;42.048;24.638;2023-01-19T03:42:28;96661.03;;;11.66;79.98
10464;BME280;5279;42.048;24.638;2023-01-19T03:44:56;96628.81;;;11.69;81.04
10464;BME280;5279;42.048;24.638;2023-01-19T03:47:26;96635.00;;;11.70;80.88
10464;BME280;5279;42.048;24.638;2023-01-19T03:49:55;96631.63;;;11.68;80.84
10464;BME280;5279;42.048;24.638;2023-01-19T03:52:27;96616.56;;;11.68;81.06
10464;BME280;5279;42.048;24.638;2023-01-19T03:54:55;96645.44;;;11.63;83.75
10464;BME280;5279;42.048;24.638;2023-01-19T03:57:23;96631.81;;;11.35;84.17
10464;BME280;5279;42.048;24.638;2023-01-19T03:59:52;96634.19;;;11.30;85.16
10464;BME280;5279;42.048;24.638;2023-01-19T04:02:20;96656.19;;;11.31;85.75
10464;BME280;5279;42.048;24.638;2023-01-19T04:04:48;96652.56;;;11.32;81.39
10464;BME280;5279;42.048;24.638;2023-01-19T04:07:15;96648.72;;;11.42;81.04
10464;BME280;5279;42.048;24.638;2023-01-19T04:09:42;96645.88;;;11.44;82.03
10464;BME280;5279;42.048;24.638;2023-01-19T04:12:10;96641.66;;;11.58;81.04
10464;BME280;5279;42.048;24.638;2023-01-19T04:14:37;96636.16;;;11.67;78.98
10464;BME280;5279;42.048;24.638;2023-01-19T04:17:12;96651.75;;;11.70;79.55
10464;BME280;5279;42.048;24.638;2023-01-19T04:19:40;96659.19;;;11.67;77.73
10464;BME280;5279;42.048;24.638;2023-01-19T04:22:08;96660.66;;;11.69;77.69
10464;BME280;5279;42.048;24.638;2023-01-19T04:24:42;96646.44;;;11.70;77.85
10464;BME280;5279;42.048;24.638;2023-01-19T04:27:10;96652.41;;;11.72;78.01
10464;BME280;5279;42.048;24.638;2023-01-19T04:29:37;96645.84;;;11.83;76.57
10464;BME280;5279;42.048;24.638;2023-01-19T04:32:04;96644.97;;;11.90;76.77
10464;BME280;5279;42.048;24.638;2023-01-19T04:34:33;96655.66;;;11.82;78.00
10464;BME280;5279;42.048;24.638;2023-01-19T04:37:01;96672.78;;;11.25;82.16
10464;BME280;5279;42.048;24.638;2023-01-19T04:39:28;96670.47;;;11.30;81.32
10464;BME280;5279;42.048;24.638;2023-01-19T04:41:55;96668.81;;;11.29;81.15
10464;BME280;5279;42.048;24.638;2023-01-19T04:44:23;96664.81;;;11.33;80.93
10464;BME280;5279;42.048;24.638;2023-01-19T04:46:50;96655.16;;;11.40;80.75
10464;BME280;5279;42.048;24.638;2023-01-19T04:49:17;96666.78;;;11.39;83.39
10464;BME280;5279;42.048;24.638;2023-01-19T04:51:46;96657.22;;;11.30;81.88
10464;BME280;5279;42.048;24.638;2023-01-19T04:54:13;96662.88;;;11.27;81.60
10464;BME280;5279;42.048;24.638;2023-01-19T04:56:40;96673.34;;;11.12;83.11
10464;BME280;5279;42.048;24.638;2023-01-19T04:59:08;96662.25;;;11.09;82.40
10464;BME280;5279;42.048;24.638;2023-01-19T05:01:35;96667.84;;;11.22;81.74
10464;BME280;5279;42.048;24.638;2023-01-19T05:04:03;96664.88;;;11.17;84.07
10464;BME280;5279;42.048;24.638;2023-01-19T05:06:31;96675.66;;;11.07;84.00
10464;BME280;5279;42.048;24.638;2023-01-19T05:08:59;96653.56;;;10.84;86.19
10464;BME280;5279;42.048;24.638;2023-01-19T05:11:27;96663.63;;;10.96;84.79
10464;BME280;5279;42.048;24.638;2023-01-19T05:13:54;96664.91;;;11.01;85.21
10464;BME280;5279;42.048;24.638;2023-01-19T05:16:22;96674.88;;;10.98;86.12
10464;BME280;5279;42.048;24.638;2023-01-19T05:18:50;96655.16;;;11.01;84.75
10464;BME280;5279;42.048;24.638;2023-01-19T05:21:18;96672.22;;;10.98;84.61
10464;BME280;5279;42.048;24.638;2023-01-19T05:23:45;96669.22;;;11.02;85.16
10464;BME280;5279;42.048;24.638;2023-01-19T05:26:13;96668.25;;;10.94;86.08
10464;BME280;5279;42.048;24.638;2023-01-19T05:28:41;96663.97;;;10.93;85.69
10464;BME280;5279;42.048;24.638;2023-01-19T05:31:08;96676.53;;;10.91;86.64
10464;BME280;5279;42.048;24.638;2023-01-19T05:33:36;96672.56;;;10.95;85.04
10464;BME280;5279;42.048;24.638;2023-01-19T05:36:03;96675.53;;;11.01;83.87
10464;BME280;5279;42.048;24.638;2023-01-19T05:38:30;96685.78;;;11.04;86.69
10464;BME280;5279;42.048;24.638;2023-01-19T05:40:58;96704.38;;;10.79;87.83
10464;BME280;5279;42.048;24.638;2023-01-19T05:43:27;96708.88;;;10.71;88.47
10464;BME280;5279;42.048;24.638;2023-01-19T05:45:54;96698.47;;;10.69;89.37
10464;BME280;5279;42.048;24.638;2023-01-19T05:48:21;96708.38;;;10.67;89.62
10464;BME280;5279;42.048;24.638;2023-01-19T05:50:48;96715.00;;;10.47;92.10
10464;BME280;5279;42.048;24.638;2023-01-19T05:53:15;96727.59;;;10.45;91.36
10464;BME280;5279;42.048;24.638;2023-01-19T05:55:42;96733.72;;;10.46;92.59
10464;BME280;5279;42.048;24.638;2023-01-19T05:58:10;96734.06;;;10.43;92.11
10464;BME280;5279;42.048;24.638;2023-01-19T06:00:38;96728.91;;;10.49;92.64
10464;BME280;5279;42.048;24.638;2023-01-19T06:03:05;96716.66;;;10.32;96.82
10464;BME280;5279;42.048;24.638;2023-01-19T06:05:33;96732.22;;;10.43;94.52
10464;BME280;5279;42.048;24.638;2023-01-19T06:08:02;96716.00;;;10.54;89.15
10464;BME280;5279;42.048;24.638;2023-01-19T06:10:29;96719.16;;;10.66;87.86
10464;BME280;5279;42.048;24.638;2023-01-19T06:12:57;96732.22;;;10.67;90.52
10464;BME280;5279;42.048;24.638;2023-01-19T06:15:24;96706.56;;;10.76;86.89
10464;BME280;5279;42.048;24.638;2023-01-19T06:17:53;96690.16;;;10.80;86.69
10464;BME280;5279;42.048;24.638;2023-01-19T06:20:20;96714.97;;;10.95;84.63
10464;BME280;5279;42.048;24.638;2023-01-19T06:22:48;96721.06;;;11.12;83.37
10464;BME280;5279;42.048;24.638;2023-01-19T06:25:15;96716.91;;;11.10;84.54
10464;BME280;5279;42.048;24.638;2023-01-19T06:27:43;96717.56;;;11.20;82.31
10464;BME280;5279;42.048;24.638;2023-01-19T06:30:12;96720.81;;;11.38;81.27
10464;BME280;5279;42.048;24.638;2023-01-19T06:32:39;96733.16;;;11.62;79.25
10464;BME280;5279;42.048;24.638;2023-01-19T06:35:08;96727.34;;;11.74;80.35
10464;BME280;5279;42.048;24.638;2023-01-19T06:37:36;96744.50;;;11.94;76.88
10464;BME280;5279;42.048;24.638;2023-01-19T06:40:13;96744.28;;;12.04;74.77
10464;BME280;5279;42.048;24.638;2023-01-19T06:42:40;96744.44;;;12.33;72.26
10464;BME280;5279;42.048;24.638;2023-01-19T06:45:09;96725.81;;;12.56;70.57
10464;BME280;5279;42.048;24.638;2023-01-19T06:47:36;96728.22;;;12.88;70.30
10464;BME280;5279;42.048;24.638;2023-01-19T06:50:04;96735.09;;;13.20;71.41
10464;BME280;5279;42.048;24.638;2023-01-19T06:52:33;96737.69;;;13.43;69.45
10464;BME280;5279;42.048;24.638;2023-01-19T06:55:07;96729.03;;;13.41;66.67
10464;BME280;5279;42.048;24.638;2023-01-19T06:57:35;96733.91;;;13.37;62.97
10464;BME280;5279;42.048;24.638;2023-01-19T07:00:04;96733.25;;;13.50;62.62
10464;BME280;5279;42.048;24.638;2023-01-19T07:02:33;96726.25;;;13.78;63.63
10464;BME280;5279;42.048;24.638;2023-01-19T07:05:02;96727.22;;;14.06;63.38
10464;BME280;5279;42.048;24.638;2023-01-19T07:07:33;96738.66;;;14.21;65.14
10464;BME280;5279;42.048;24.638;2023-01-19T07:10:00;96724.47;;;14.00;60.43
10464;BME280;5279;42.048;24.638;2023-01-19T07:12:29;96719.75;;;14.16;60.94
10464;BME280;5279;42.048;24.638;2023-01-19T07:14:57;96731.19;;;14.46;60.68
10464;BME280;5279;42.048;24.638;2023-01-19T07:17:24;96731.88;;;14.76;61.36
10464;BME280;5279;42.048;24.638;2023-01-19T07:19:51;96727.41;;;15.04;60.91
10464;BME280;5279;42.048;24.638;2023-01-19T07:22:18;96733.13;;;15.36;60.27
10464;BME280;5279;42.048;24.638;2023-01-19T07:24:47;96716.47;;;15.55;58.90
10464;BME280;5279;42.048;24.638;2023-01-19T07:27:15;96727.66;;;15.78;57.08
10464;BME280;5279;42.048;24.638;2023-01-19T07:29:42;96740.75;;;16.07;55.56
10464;BME280;5279;42.048;24.638;2023-01-19T07:32:12;96739.38;;;16.24;55.97
10464;BME280;5279;42.048;24.638;2023-01-19T07:34:41;96747.59;;;16.29;55.56
10464;BME280;5279;42.048;24.638;2023-01-19T07:37:08;96759.13;;;16.30;54.30
10464;BME280;5279;42.048;24.638;2023-01-19T07:39:36;96743.06;;;16.23;55.89
10464;BME280;5279;42.048;24.638;2023-01-19T07:42:14;96750.91;;;16.31;56.97
10464;BME280;5279;42.048;24.638;2023-01-19T07:44:41;96765.28;;;16.30;57.60
10464;BME280;5279;42.048;24.638;2023-01-19T07:47:09;96764.50;;;16.36;58.16
10464;BME280;5279;42.048;24.638;2023-01-19T07:49:37;96746.91;;;16.68;56.98
10464;BME280;5279;42.048;24.638;2023-01-19T07:52:04;96750.66;;;17.00;55.41
10464;BME280;5279;42.048;24.638;2023-01-19T07:54:44;96744.06;;;17.09;55.01
10464;BME280;5279;42.048;24.638;2023-01-19T07:57:17;96740.38;;;17.23;53.37
10464;BME280;5279;42.048;24.638;2023-01-19T07:59:45;96729.59;;;17.49;53.08
10464;BME280;5279;42.048;24.638;2023-01-19T08:02:12;96731.63;;;17.74;50.88
10464;BME280;5279;42.048;24.638;2023-01-19T08:04:40;96745.00;;;17.87;50.92
10464;BME280;5279;42.048;24.638;2023-01-19T08:07:08;96747.19;;;18.03;49.41
10464;BME280;5279;42.048;24.638;2023-01-19T08:09:35;96743.38;;;18.30;48.40
10464;BME280;5279;42.048;24.638;2023-01-19T08:12:03;96745.53;;;18.60;47.94
10464;BME280;5279;42.048;24.638;2023-01-19T08:14:33;96736.25;;;18.55;46.76
10464;BME280;5279;42.048;24.638;2023-01-19T08:17:01;96762.75;;;18.77;44.91
10464;BME280;5279;42.048;24.638;2023-01-19T08:19:29;96743.69;;;18.85;45.05
10464;BME280;5279;42.048;24.638;2023-01-19T08:21:56;96752.41;;;19.12;45.05
10464;BME280;5279;42.048;24.638;2023-01-19T08:24:24;96754.44;;;19.41;44.65
10464;BME280;5279;42.048;24.638;2023-01-19T08:26:57;96736.19;;;19.68;43.31
10464;BME280;5279;42.048;24.638;2023-01-19T08:29:24;96735.75;;;19.71;43.91
10464;BME280;5279;42.048;24.638;2023-01-19T08:31:54;96733.38;;;19.99;43.78
10464;BME280;5279;42.048;24.638;2023-01-19T08:34:23;96718.19;;;20.23;43.42
10464;BME280;5279;42.048;24.638;2023-01-19T08:36:51;96726.53;;;20.51;42.25
10464;BME280;5279;42.048;24.638;2023-01-19T08:39:18;96730.78;;;21.00;41.98
10464;BME280;5279;42.048;24.638;2023-01-19T08:41:48;96735.66;;;21.44;40.10
10464;BME280;5279;42.048;24.638;2023-01-19T08:44:15;96747.50;;;21.43;39.28
10464;BME280;5279;42.048;24.638;2023-01-19T08:46:43;96735.19;;;21.59;39.30
10464;BME280;5279;42.048;24.638;2023-01-19T08:49:13;96731.69;;;21.93;38.44
10464;BME280;5279;42.048;24.638;2023-01-19T08:51:41;96729.78;;;22.45;37.42
10464;BME280;5279;42.048;24.638;2023-01-19T08:54:11;96707.38;;;22.45;36.46
10464;BME280;5279;42.048;24.638;2023-01-19T08:56:40;96714.53;;;22.96;36.15
10464;BME280;5279;42.048;24.638;2023-01-19T08:59:08;96688.88;;;23.43;34.99
10464;BME280;5279;42.048;24.638;2023-01-19T09:01:36;96708.22;;;24.12;34.73
10464;BME280;5279;42.048;24.638;2023-01-19T09:04:04;96713.25;;;24.68;34.12
10464;BME280;5279;42.048;24.638;2023-01-19T09:06:33;96703.78;;;24.71;33.77
10464;BME280;5279;42.048;24.638;2023-01-19T09:09:00;96712.09;;;25.18;32.94
10464;BME280;5279;42.048;24.638;2023-01-19T09:11:28;96706.13;;;25.16;32.90
10464;BME280;5279;42.048;24.638;2023-01-19T09:13:57;96697.72;;;25.49;33.01
10464;BME280;5279;42.048;24.638;2023-01-19T09:16:24;96687.44;;;26.03;32.78
10464;BME280;5279;42.048;24.638;2023-01-19T09:18:53;96709.25;;;26.90;31.57
10464;BME280;5279;42.048;24.638;2023-01-19T09:21:21;96688.34;;;27.46;30.49
10464;BME280;5279;42.048;24.638;2023-01-19T09:23:50;96690.25;;;27.56;30.25
10464;BME280;5279;42.048;24.638;2023-01-19T09:26:19;96689.56;;;28.19;29.18
10464;BME280;5279;42.048;24.638;2023-01-19T09:28:48;96675.59;;;28.85;28.37
10464;BME280;5279;42.048;24.638;2023-01-19T09:31:15;96668.59;;;28.74;27.71
10464;BME280;5279;42.048;24.638;2023-01-19T09:33:43;96682.75;;;28.81;26.56
10464;BME280;5279;42.048;24.638;2023-01-19T09:36:11;96670.53;;;29.07;25.86
10464;BME280;5279;42.048;24.638;2023-01-19T09:38:39;96669.31;;;29.28;24.41
10464;BME280;5279;42.048;24.638;2023-01-19T09:41:16;96670.94;;;29.87;24.27
10464;BME280;5279;42.048;24.638;2023-01-19T09:43:46;96667.97;;;30.07;23.66
10464;BME280;5279;42.048;24.638;2023-01-19T09:46:18;96668.25;;;30.29;23.09
10464;BME280;5279;42.048;24.638;2023-01-19T09:48:48;96639.59;;;30.69;22.99
10464;BME280;5279;42.048;24.638;2023-01-19T09:51:19;96639.38;;;29.13;22.87
10464;BME280;5279;42.048;24.638;2023-01-19T09:53:52;96636.53;;;29.86;22.34
10464;BME280;5279;42.048;24.638;2023-01-19T09:56:23;96604.22;;;29.93;22.63
10464;BME280;5279;42.048;24.638;2023-01-19T09:58:51;96625.94;;;28.88;22.49
10464;BME280;5279;42.048;24.638;2023-01-19T10:01:38;96613.34;;;28.04;23.60
10464;BME280;5279;42.048;24.638;2023-01-19T10:04:27;96618.22;;;29.00;23.81
10464;BME280;5279;42.048;24.638;2023-01-19T10:07:05;96591.81;;;29.82;23.91
10464;BME280;5279;42.048;24.638;2023-01-19T10:09:44;96597.38;;;29.14;23.45
10464;BME280;5279;42.048;24.638;2023-01-19T10:12:23;96605.53;;;29.72;20.97
10464;BME280;5279;42.048;24.638;2023-01-19T10:15:02;96609.22;;;29.86;20.56
10464;BME280;5279;42.048;24.638;2023-01-19T10:17:40;96617.19;;;30.49;20.94
10464;BME280;5279;42.048;24.638;2023-01-19T10:20:15;96605.94;;;30.69;22.98
10464;BME280;5279;42.048;24.638;2023-01-19T10:22:47;96600.84;;;31.00;22.39
10464;BME280;5279;42.048;24.638;2023-01-19T10:25:18;96596.47;;;31.45;22.49
10464;BME280;5279;42.048;24.638;2023-01-19T10:27:49;96611.13;;;31.54;22.90
10464;BME280;5279;42.048;24.638;2023-01-19T10:30:20;96593.38;;;31.92;22.50
10464;BME280;5279;42.048;24.638;2023-01-19T10:32:49;96610.66;;;32.83;22.17
10464;BME280;5279;42.048;24.638;2023-01-19T10:35:18;96608.50;;;32.58;22.38
10464;BME280;5279;42.048;24.638;2023-01-19T10:37:50;96598.19;;;33.21;21.67
10464;BME280;5279;42.048;24.638;2023-01-19T10:40:26;96578.34;;;33.24;21.30
10464;BME280;5279;42.048;24.638;2023-01-19T10:42:57;96587.59;;;33.28;21.94
10464;BME280;5279;42.048;24.638;2023-01-19T10:45:27;96577.94;;;30.58;25.14
10464;BME280;5279;42.048;24.638;2023-01-19T10:47:58;96569.88;;;31.31;22.70
10464;BME280;5279;42.048;24.638;2023-01-19T10:50:28;96585.47;;;31.50;22.03
10464;BME280;5279;42.048;24.638;2023-01-19T10:52:57;96570.34;;;32.20;20.25
10464;BME280;5279;42.048;24.638;2023-01-19T10:55:28;96555.91;;;32.28;21.03
10464;BME280;5279;42.048;24.638;2023-01-19T10:57:57;96559.63;;;32.82;19.65
10464;BME280;5279;42.048;24.638;2023-01-19T11:00:33;96567.00;;;32.95;16.59
10464;BME280;5279;42.048;24.638;2023-01-19T11:03:03;96535.84;;;31.92;16.87
10464;BME280;5279;42.048;24.638;2023-01-19T11:05:32;96537.38;;;31.84;17.59
10464;BME280;5279;42.048;24.638;2023-01-19T11:08:00;96563.69;;;32.48;16.89
10464;BME280;5279;42.048;24.638;2023-01-19T11:10:38;96537.38;;;32.47;16.25
10464;BME280;5279;42.048;24.638;2023-01-19T11:13:13;96544.16;;;33.08;16.67
10464;BME280;5279;42.048;24.638;2023-01-19T11:15:45;96550.88;;;33.24;16.39
10464;BME280;5279;42.048;24.638;2023-01-19T11:18:23;96563.69;;;31.85;16.90
10464;BME280;5279;42.048;24.638;2023-01-19T11:20:54;96544.91;;;31.79;16.83
10464;BME280;5279;42.048;24.638;2023-01-19T11:23:25;96567.69;;;32.02;15.85
10464;BME280;5279;42.048;24.638;2023-01-19T11:25:56;96540.97;;;32.70;16.17
10464;BME280;5279;42.048;24.638;2023-01-19T11:28:29;96541.84;;;31.53;16.62
10464;BME280;5279;42.048;24.638;2023-01-19T11:30:59;96537.84;;;29.93;18.35
10464;BME280;5279;42.048;24.638;2023-01-19T11:33:32;96560.03;;;29.10;18.68
10464;BME280;5279;42.048;24.638;2023-01-19T11:36:12;96586.69;;;27.96;19.80
10464;BME280;5279;42.048;24.638;2023-01-19T11:38:42;96590.72;;;27.04;20.95
10464;BME280;5279;42.048;24.638;2023-01-19T11:41:16;96612.16;;;24.94;22.50
10464;BME280;5279;42.048;24.638;2023-01-19T11:43:47;96561.31;;;26.46;21.67
10464;BME280;5279;42.048;24.638;2023-01-19T11:46:17;96591.25;;;27.01;21.28
10464;BME280;5279;42.048;24.638;2023-01-19T11:48:48;96587.34;;;25.13;22.11
10464;BME280;5279;42.048;24.638;2023-01-19T11:51:22;96576.66;;;24.64;22.39
10464;BME280;5279;42.048;24.638;2023-01-19T11:53:52;96563.44;;;26.19;21.32
10464;BME280;5279;42.048;24.638;2023-01-19T11:56:22;96566.47;;;26.37;20.81
10464;BME280;5279;42.048;24.638;2023-01-19T11:58:54;96539.00;;;26.19;21.12
10464;BME280;5279;42.048;24.638;2023-01-19T12:01:23;96538.72;;;27.26;20.81
10464;BME280;5279;42.048;24.638;2023-01-19T12:03:57;96541.69;;;28.53;19.36
10464;BME280;5279;42.048;24.638;2023-01-19T12:06:30;96493.03;;;28.99;18.41
10464;BME280;5279;42.048;24.638;2023-01-19T12:09:01;96547.84;;;28.30;18.90
10464;BME280;5279;42.048;24.638;2023-01-19T12:11:31;96533.44;;;29.49;18.21
10464;BME280;5279;42.048;24.638;2023-01-19T12:14:03;96539.38;;;31.24;17.15
10464;BME280;5279;42.048;24.638;2023-01-19T12:16:33;96537.78;;;32.41;16.82
10464;BME280;5279;42.048;24.638;2023-01-19T12:19:09;96550.41;;;33.22;15.17
10464;BME280;5279;42.048;24.638;2023-01-19T12:21:39;96553.06;;;29.75;17.26
10464;BME280;5279;42.048;24.638;2023-01-19T12:24:13;96546.19;;;30.01;17.84
10464;BME280;5279;42.048;24.638;2023-01-19T12:26:45;96635.78;;;27.61;18.86
10464;BME280;5279;42.048;24.638;2023-01-19T12:29:17;96544.56;;;27.74;19.21
10464;BME280;5279;42.048;24.638;2023-01-19T12:32:16;96561.06;;;27.97;19.10
10464;BME280;5279;42.048;24.638;2023-01-19T12:34:45;96552.03;;;27.43;19.77
10464;BME280;5279;42.048;24.638;2023-01-19T12:37:32;96542.34;;;27.86;19.33
10464;BME280;5279;42.048;24.638;2023-01-19T12:40:16;96557.31;;;28.76;18.90
10464;BME280;5279;42.048;24.638;2023-01-19T12:42:45;96516.97;;;28.78;18.72
10464;BME280;5279;42.048;24.638;2023-01-19T12:45:19;96532.78;;;27.14;20.18
10464;BME280;5279;42.048;24.638;2023-01-19T12:47:50;96558.78;;;28.19;19.55
10464;BME280;5279;42.048;24.638;2023-01-19T12:50:19;96575.13;;;27.55;20.19
10464;BME280;5279;42.048;24.638;2023-01-19T12:52:50;96543.94;;;26.77;21.30
10464;BME280;5279;42.048;24.638;2023-01-19T12:55:23;96546.09;;;26.75;20.95
10464;BME280;5279;42.048;24.638;2023-01-19T12:58:00;96543.38;;;26.60;21.24
10464;BME280;5279;42.048;24.638;2023-01-19T13:00:33;96546.97;;;26.81;21.04
10464;BME280;5279;42.048;24.638;2023-01-19T13:03:02;96535.16;;;27.41;21.36
10464;BME280;5279;42.048;24.638;2023-01-19T13:05:57;96544.72;;;28.07;20.42
10464;BME280;5279;42.048;24.638;2023-01-19T13:08:27;96556.09;;;29.50;19.21
10464;BME280;5279;42.048;24.638;2023-01-19T13:11:14;96559.00;;;30.06;18.21
10464;BME280;5279;42.048;24.638;2023-01-19T13:13:43;96528.03;;;29.15;19.27
10464;BME280;5279;42.048;24.638;2023-01-19T13:19:21;96543.75;;;28.27;20.00
10464;BME280;5279;42.048;24.638;2023-01-19T13:21:53;96550.25;;;27.87;20.62